Time;durP1;ratioP1;P1;durP2;ratioP2;P2;SDS_P1;SDS_P2;PMS_P1;PMS_P2;Temp;Humidity;BMP_temperature;BMP_pressure;BME280_temperature;BME280_humidity;BME280_pressure;Samples;Min_cycle;Max_cycle;Signal;HPM_P1;HPM_P2
2023/01/01 00:01:31;;;;;;;27.38;20.17;;;;;;;13.57;50.92;93831.84;4953060;28;20042;-90
2023/01/01 00:03:57;;;;;;;25.20;19.25;;;;;;;13.56;51.06;93844.69;4936324;28;20051;-90
2023/01/01 00:06:22;;;;;;;25.90;19.58;;;;;;;13.58;50.37;93839.53;4951553;28;20049;-89
2023/01/01 00:08:48;;;;;;;25.75;19.35;;;;;;;13.58;50.60;93846.94;4953079;28;20031;-90
2023/01/01 00:11:13;;;;;;;26.67;19.55;;;;;;;13.59;50.84;93856.59;4952234;28;20043;-89
2023/01/01 00:13:40;;;;;;;24.95;19.40;;;;;;;13.61;50.72;93854.91;4932988;29;20043;-90
2023/01/01 00:16:06;;;;;;;25.23;19.65;;;;;;;13.60;50.72;93850.69;4933568;28;20477;-89
2023/01/01 00:18:32;;;;;;;30.52;20.30;;;;;;;13.57;51.14;93856.31;4937545;28;20038;-90
2023/01/01 00:21:03;;;;;;;23.02;19.75;;;;;;;13.58;50.81;93855.84;4936636;28;20042;-92
2023/01/01 00:23:28;;;;;;;;;;;;;;;13.64;50.47;93858.66;4944361;28;20035;-89
2023/01/01 00:25:53;;;;;;;24.50;19.30;;;;;;;13.57;50.95;93869.88;4968699;28;19929;-91
2023/01/01 00:28:19;;;;;;;25.60;19.20;;;;;;;13.56;50.93;93868.38;4949764;28;20269;-90
2023/01/01 00:30:44;;;;;;;25.67;20.50;;;;;;;13.55;50.73;93867.63;4933595;29;20035;-89
2023/01/01 00:33:10;;;;;;;29.88;20.13;;;;;;;13.55;50.90;93878.50;4933546;28;20226;-91
2023/01/01 00:35:35;;;;;;;23.13;18.35;;;;;;;13.55;51.01;93870.34;4935847;28;20042;-90
2023/01/01 00:38:00;;;;;;;27.33;21.05;;;;;;;13.56;50.66;93866.41;4936458;28;20510;-89
2023/01/01 00:40:26;;;;;;;25.85;19.05;;;;;;;13.57;50.70;93872.59;4933058;28;20405;-89
2023/01/01 00:42:51;;;;;;;26.00;20.83;;;;;;;13.55;50.77;93870.34;4955719;28;20493;-90
2023/01/01 00:45:17;;;;;;;24.50;18.98;;;;;;;13.56;50.86;93871.09;4972759;28;20053;-90
2023/01/01 00:47:42;;;;;;;24.77;18.38;;;;;;;13.55;50.72;93867.63;4958591;28;20049;-90
2023/01/01 00:50:08;;;;;;;25.85;18.30;;;;;;;13.55;50.84;93856.75;4942127;28;20039;-89
2023/01/01 00:52:34;;;;;;;27.77;19.58;;;;;;;13.53;50.97;93851.03;4955700;28;20043;-91
2023/01/01 00:54:59;;;;;;;25.23;19.88;;;;;;;13.56;51.00;93843.94;4970130;28;20043;-89
2023/01/01 00:57:25;;;;;;;26.88;19.55;;;;;;;13.57;51.04;93843.47;4973679;28;20571;-91
2023/01/01 00:59:50;;;;;;;25.27;19.52;;;;;;;13.58;50.83;93855.84;4957930;28;20346;-90
2023/01/01 01:02:16;;;;;;;27.30;19.08;;;;;;;13.61;50.86;93852.19;4942705;28;20054;-90
2023/01/01 01:04:41;;;;;;;25.83;19.67;;;;;;;13.60;50.97;93850.69;4958183;28;20400;-90
2023/01/01 01:07:06;;;;;;;26.33;19.98;;;;;;;13.60;50.57;93856.13;4958242;28;20046;-91
2023/01/01 01:09:32;;;;;;;22.95;19.10;;;;;;;13.60;50.92;93858.84;4958450;28;20050;-90
2023/01/01 01:11:57;;;;;;;27.45;19.80;;;;;;;13.58;50.84;93855.84;4938849;28;20042;-90
2023/01/01 01:14:23;;;;;;;25.42;19.55;;;;;;;13.58;50.77;93865.94;4957692;28;20042;-90
2023/01/01 01:16:48;;;;;;;26.77;19.75;;;;;;;13.56;50.72;93868.38;4976151;28;20038;-91
2023/01/01 01:19:17;;;;;;;27.88;19.75;;;;;;;13.57;50.79;93864.44;4941536;28;20061;-90
2023/01/01 01:21:43;;;;;;;23.63;18.48;;;;;;;13.57;50.64;93869.88;4943810;28;20489;-90
2023/01/01 01:24:08;;;;;;;25.05;18.92;;;;;;;13.56;50.93;93860.97;4954714;28;20058;-90
2023/01/01 01:26:35;;;;;;;24.45;19.00;;;;;;;13.60;50.93;93866.22;4955658;28;20062;-89
2023/01/01 01:29:01;;;;;;;24.98;19.63;;;;;;;13.59;50.71;93862.75;4957799;28;20535;-90
2023/01/01 01:31:28;;;;;;;23.85;19.02;;;;;;;13.57;50.91;93854.34;4958203;28;20051;-90
2023/01/01 01:33:53;;;;;;;26.42;20.05;;;;;;;13.59;50.86;93856.59;4974982;28;20031;-89
2023/01/01 01:36:19;;;;;;;22.52;17.70;;;;;;;13.58;50.51;93857.81;4973860;28;20500;-91
2023/01/01 01:38:44;;;;;;;25.80;19.60;;;;;;;13.59;50.69;93851.91;4957589;28;20047;-90
2023/01/01 01:41:12;;;;;;;21.92;17.88;;;;;;;13.56;50.96;93847.41;4957280;28;20035;-89
2023/01/01 01:43:37;;;;;;;22.30;18.98;;;;;;;13.56;50.72;93847.41;4942802;28;20559;-90
2023/01/01 01:46:03;;;;;;;25.17;19.95;;;;;;;13.56;51.09;93844.69;4975636;28;20149;-90
2023/01/01 01:48:41;;;;;;;23.20;18.85;;;;;;;13.57;50.88;93846.19;4974860;28;20125;-88
2023/01/01 01:51:06;;;;;;;21.73;17.90;;;;;;;13.58;51.29;93844.22;4942101;28;20039;-87
2023/01/01 01:53:33;;;;;;;28.45;19.30;;;;;;;13.57;50.71;93842.72;4919690;29;20111;-88
2023/01/01 01:56:01;;;;;;;22.45;19.15;;;;;;;13.55;50.93;93839.72;4954853;28;20111;-87
2023/01/01 01:58:27;;;;;;;24.55;19.90;;;;;;;13.54;50.82;93855.25;4938402;28;20118;-88
2023/01/01 02:00:53;;;;;;;23.48;18.35;;;;;;;13.60;51.06;93855.38;4938968;28;20530;-88
2023/01/01 02:03:23;;;;;;;24.98;18.60;;;;;;;13.62;50.65;93863.78;4953707;28;20051;-88
2023/01/01 02:05:49;;;;;;;23.98;20.52;;;;;;;13.58;50.61;93860.50;4955493;28;20043;-88
2023/01/01 02:08:15;;;;;;;26.65;19.35;;;;;;;13.58;50.82;93868.66;4954109;28;20050;-88
2023/01/01 02:10:41;;;;;;;21.45;17.52;;;;;;;13.57;51.08;93865.19;4954368;28;20039;-87
2023/01/01 02:13:06;;;;;;;22.95;18.60;;;;;;;13.58;50.91;93863.97;4955084;28;20109;-88
2023/01/01 02:15:35;;;;;;;24.02;18.13;;;;;;;13.55;50.94;93862.19;4952068;28;20040;-88
2023/01/01 02:18:11;;;;;;;22.80;18.10;;;;;;;13.57;51.00;93880.75;4939026;28;20039;-88
2023/01/01 02:20:39;;;;;;;24.40;19.73;;;;;;;13.56;50.96;93882.72;4954062;28;20166;-88
2023/01/01 02:23:09;;;;;;;20.92;17.30;;;;;;;13.56;50.89;93871.09;4971477;28;20139;-87
2023/01/01 02:25:51;;;;;;;25.55;19.40;;;;;;;13.56;50.83;93868.38;4970382;28;20043;-88
2023/01/01 02:28:22;;;;;;;24.13;18.20;;;;;;;13.55;50.77;93864.91;4967196;28;20618;-87
2023/01/01 02:30:48;;;;;;;25.48;18.67;;;;;;;13.53;50.69;93864.63;4969991;28;20051;-88
2023/01/01 02:33:16;;;;;;;24.92;18.88;;;;;;;13.55;51.05;93858.72;4954181;28;20089;-87
2023/01/01 02:35:47;;;;;;;22.27;17.70;;;;;;;13.56;50.89;93863.69;4938138;28;20125;-88
2023/01/01 02:38:18;;;;;;;24.98;18.92;;;;;;;13.57;51.01;93867.16;4934392;28;20045;-87
2023/01/01 02:40:48;;;;;;;;;;;;;;;13.64;50.69;93858.66;4933990;28;20057;-87
2023/01/01 02:43:13;;;;;;;21.55;18.05;;;;;;;13.55;51.04;93856.75;4953883;28;19918;-87
2023/01/01 02:45:39;;;;;;;23.92;18.25;;;;;;;13.57;50.94;93854.34;4938515;28;20093;-88
2023/01/01 02:48:26;;;;;;;23.92;18.58;;;;;;;13.54;50.67;93857.97;4952501;28;20038;-87
2023/01/01 02:50:51;;;;;;;25.13;19.10;;;;;;;13.56;50.71;93862.94;4956528;28;20408;-89
2023/01/01 02:53:29;;;;;;;21.00;17.30;;;;;;;13.57;51.39;93857.06;4953289;28;20039;-88
2023/01/01 02:56:07;;;;;;;25.67;18.58;;;;;;;13.56;50.96;93858.25;4953748;28;20042;-88
2023/01/01 03:01:34;;;;;;;26.27;18.25;;;;;;;13.57;50.78;93856.31;4968229;28;20065;-88
2023/01/01 03:04:12;;;;;;;24.40;18.65;;;;;;;13.55;50.97;93866.88;4969454;28;20051;-88
2023/01/01 03:06:53;;;;;;;23.65;17.58;;;;;;;13.58;50.59;93860.50;4951241;28;20087;-88
2023/01/01 03:09:42;;;;;;;23.45;17.38;;;;;;;13.56;50.61;93862.94;4954297;28;20058;-88
2023/01/01 03:12:24;;;;;;;20.88;18.40;;;;;;;13.60;51.03;93871.66;4937663;28;20054;-87
2023/01/01 03:15:01;;;;;;;23.45;18.17;;;;;;;13.55;50.66;93864.16;4970177;28;20042;-88
2023/01/01 03:17:28;;;;;;;22.80;17.85;;;;;;;13.54;51.51;93865.38;4938005;28;20037;-87
2023/01/01 03:19:55;;;;;;;21.77;16.40;;;;;;;13.52;51.02;93865.84;4969380;28;20050;-88
2023/01/01 03:22:20;;;;;;;22.95;17.70;;;;;;;13.56;51.11;93865.66;4937629;28;20051;-88
2023/01/01 03:24:52;;;;;;;24.98;18.60;;;;;;;13.58;50.81;93868.66;4953188;28;20041;-88
2023/01/01 03:27:30;;;;;;;22.50;17.92;;;;;;;13.57;50.79;93867.16;4952379;28;20417;-87
2023/01/01 03:29:59;;;;;;;22.58;18.33;;;;;;;13.57;50.77;93856.31;4936498;29;20043;-88
2023/01/01 03:32:59;;;;;;;26.42;19.60;;;;;;;13.57;51.03;93867.16;4950057;28;20051;-88
2023/01/01 03:35:16;;;;;;;22.65;18.00;;;;;;;13.57;50.95;93869.88;4954402;28;20126;-88
2023/01/01 03:37:42;;;;;;;21.27;16.55;;;;;;;13.55;50.69;93867.63;4970293;28;20142;-89
2023/01/01 03:40:08;;;;;;;20.38;16.85;;;;;;;13.54;50.89;93871.56;4935808;28;20640;-88
2023/01/01 03:42:40;;;;;;;22.02;17.67;;;;;;;13.55;50.76;93862.19;4953050;28;20049;-87
2023/01/01 03:45:08;;;;;;;24.67;18.70;;;;;;;13.54;50.67;93874.28;4936873;28;20089;-87
2023/01/01 03:47:33;;;;;;;21.92;17.63;;;;;;;13.52;50.85;93865.84;4969088;28;20055;-88
2023/01/01 03:49:59;;;;;;;23.02;17.23;;;;;;;13.51;50.98;93861.63;4933727;29;20051;-86
2023/01/01 03:52:43;;;;;;;24.98;18.15;;;;;;;13.55;51.22;93870.34;4963556;28;20051;-87
2023/01/01 03:55:14;;;;;;;20.92;18.13;;;;;;;13.60;50.78;93868.94;4987482;28;20049;-86
2023/01/01 03:57:56;;;;;;;23.50;17.70;;;;;;;13.58;50.78;93868.66;4969346;28;20471;-87
2023/01/01 04:00:22;;;;;;;;;;;;;;;13.65;50.70;93876.41;4953222;28;20042;-87
2023/01/01 04:02:49;;;;;;;20.55;16.35;;;;;;;13.58;50.80;93874.84;4952380;28;20005;-87
2023/01/01 04:05:15;;;;;;;21.20;18.33;;;;;;;13.55;50.86;93859.47;4952654;28;20047;-87
2023/01/01 04:07:41;;;;;;;22.60;17.27;;;;;;;13.56;50.96;93866.41;4953246;28;20405;-88
2023/01/01 04:10:16;;;;;;;22.45;18.27;;;;;;;13.59;50.71;93870.91;4951508;28;20043;-87
2023/01/01 04:12:48;;;;;;;23.05;17.20;;;;;;;13.58;50.84;93872.13;4938498;28;20065;-88
2023/01/01 04:15:15;;;;;;;21.55;17.17;;;;;;;13.54;51.04;93882.44;4968165;28;20074;-87
2023/01/01 04:17:40;;;;;;;21.58;17.45;;;;;;;13.58;50.73;93871.38;4936542;28;20476;-87
2023/01/01 04:20:06;;;;;;;21.60;18.05;;;;;;;13.56;50.93;93871.84;4951757;28;20121;-88
2023/01/01 04:22:32;;;;;;;22.20;17.15;;;;;;;13.58;50.70;93874.84;4952549;28;20495;-87
2023/01/01 04:24:57;;;;;;;22.27;17.85;;;;;;;13.56;50.93;93869.13;4968225;28;20126;-87
2023/01/01 04:27:23;;;;;;;23.92;18.35;;;;;;;13.57;50.78;93869.88;4948076;28;20405;-87
2023/01/01 04:29:48;;;;;;;23.38;17.08;;;;;;;13.55;51.18;93873.06;4958260;28;20054;-87
2023/01/01 04:32:13;;;;;;;22.52;17.88;;;;;;;13.55;50.80;93870.34;4951319;28;20057;-88
2023/01/01 04:34:39;;;;;;;20.55;16.95;;;;;;;13.54;50.47;93863.41;4936686;28;20031;-88
2023/01/01 04:37:04;;;;;;;21.85;16.80;;;;;;;13.56;50.69;93869.13;4968140;28;20043;-87
2023/01/01 04:39:30;;;;;;;20.65;16.33;;;;;;;13.58;50.66;93868.66;4935562;28;20042;-88
2023/01/01 04:41:55;;;;;;;20.13;17.02;;;;;;;13.55;50.74;93878.50;4951816;28;20051;-88
2023/01/01 04:44:21;;;;;;;22.85;16.92;;;;;;;13.56;51.14;93887.38;4951726;28;20041;-88
2023/01/01 04:46:46;;;;;;;21.83;16.98;;;;;;;13.54;50.79;93885.13;4951693;28;20042;-87
2023/01/01 04:49:11;;;;;;;21.77;16.02;;;;;;;13.59;50.73;93902.75;4951719;28;20046;-87
2023/01/01 04:51:37;;;;;;;23.20;16.75;;;;;;;13.58;51.02;93895.81;4948807;28;20113;-88
2023/01/01 04:54:02;;;;;;;21.70;16.52;;;;;;;13.57;50.63;93895.06;4947968;28;20564;-87
2023/01/01 04:56:28;;;;;;;19.98;17.00;;;;;;;13.56;50.89;93899.00;4946538;28;20042;-88
2023/01/01 04:58:56;;;;;;;22.65;16.85;;;;;;;13.56;50.87;93890.84;4952725;28;20046;-87
2023/01/01 05:01:23;;;;;;;21.63;17.40;;;;;;;13.58;50.98;93883.00;4947444;28;20055;-89
2023/01/01 05:03:48;;;;;;;21.35;17.02;;;;;;;13.56;51.23;93890.84;4948981;28;20039;-87
2023/01/01 05:06:15;;;;;;;20.38;16.60;;;;;;;13.58;50.80;93903.97;4927910;28;20401;-87
2023/01/01 05:08:41;;;;;;;21.70;16.33;;;;;;;13.57;50.67;93888.88;4952058;28;20089;-88
2023/01/01 05:11:17;;;;;;;23.85;17.50;;;;;;;13.58;50.52;93901.25;4935796;28;20070;-88
2023/01/01 05:13:44;;;;;;;20.73;17.13;;;;;;;13.60;50.57;93910.44;4936851;28;20066;-87
2023/01/01 05:16:13;;;;;;;20.05;15.88;;;;;;;13.58;51.00;93904.72;4951578;28;20051;-88
2023/01/01 05:18:38;;;;;;;19.90;16.42;;;;;;;13.57;50.98;93902.47;4936548;28;20029;-87
2023/01/01 05:21:08;;;;;;;20.13;16.75;;;;;;;13.55;50.69;93913.06;4951645;28;20035;-87
2023/01/01 05:23:34;;;;;;;18.67;16.00;;;;;;;13.55;50.79;93913.81;4936071;28;20041;-88
2023/01/01 05:25:59;;;;;;;22.10;17.25;;;;;;;13.54;50.61;93925.88;4936455;28;20400;-87
2023/01/01 05:28:25;;;;;;;19.70;16.27;;;;;;;13.58;50.68;93928.41;4950793;28;20493;-87
2023/01/01 05:30:51;;;;;;;19.08;15.60;;;;;;;13.56;50.89;93934.31;4952535;28;20138;-88
2023/01/01 05:33:16;;;;;;;20.88;16.58;;;;;;;13.55;50.94;93923.91;4939058;28;20126;-87
2023/01/01 05:35:42;;;;;;;21.02;16.00;;;;;;;13.57;51.08;93930.38;4956031;28;20043;-89
2023/01/01 05:38:07;;;;;;;20.30;16.35;;;;;;;13.57;50.79;93935.81;4951296;28;20040;-88
2023/01/01 05:40:32;;;;;;;20.85;16.65;;;;;;;13.58;50.68;93939.28;4937172;28;20055;-88
2023/01/01 05:42:58;;;;;;;21.00;15.85;;;;;;;13.56;50.66;93941.72;4936290;29;20393;-87
2023/01/01 05:45:23;;;;;;;21.02;16.80;;;;;;;13.58;51.13;93944.72;4953401;28;20039;-88
2023/01/01 05:47:49;;;;;;;20.30;15.45;;;;;;;13.56;50.93;93941.72;4955584;28;20043;-86
2023/01/01 05:50:14;;;;;;;21.45;16.73;;;;;;;13.56;50.87;93944.44;4971130;28;20050;-87
2023/01/01 05:52:40;;;;;;;20.05;15.88;;;;;;;13.58;50.85;93934.59;4954531;28;20098;-88
2023/01/01 05:55:06;;;;;;;20.80;17.30;;;;;;;13.56;51.02;93936.28;4938541;28;20097;-87
2023/01/01 05:57:31;;;;;;;19.92;15.40;;;;;;;13.58;50.86;93945.47;4939192;28;20487;-87
2023/01/01 05:59:57;;;;;;;21.38;16.60;;;;;;;13.58;50.89;93947.44;4954277;28;20054;-88
2023/01/01 06:02:22;;;;;;;20.77;15.82;;;;;;;13.57;50.86;93962.22;4954352;28;20054;-88
2023/01/01 06:04:48;;;;;;;21.20;16.05;;;;;;;13.56;50.65;93961.47;4971257;28;20042;-87
2023/01/01 06:07:13;;;;;;;22.40;17.13;;;;;;;13.56;50.65;93958.00;4954045;28;20050;-87
2023/01/01 06:09:39;;;;;;;22.23;16.17;;;;;;;13.52;51.09;93963.63;4955067;28;20081;-88
2023/01/01 06:12:04;;;;;;;20.23;16.70;;;;;;;13.55;51.05;93967.38;4939794;28;20054;-87
2023/01/01 06:14:30;;;;;;;19.75;16.15;;;;;;;13.53;51.09;93956.97;4903954;29;20047;-88
2023/01/01 06:16:55;;;;;;;19.50;15.95;;;;;;;13.55;50.96;93957.25;4916831;28;20508;-87
2023/01/01 06:19:21;;;;;;;23.98;17.00;;;;;;;13.57;50.67;93956.78;4908383;28;20047;-87
2023/01/01 06:21:46;;;;;;;18.85;15.52;;;;;;;13.56;50.97;93958.75;4920006;29;20047;-87
2023/01/01 06:24:11;;;;;;;18.33;15.57;;;;;;;13.57;50.95;93954.84;4917669;28;20039;-87
2023/01/01 06:26:37;;;;;;;23.73;16.52;;;;;;;13.54;50.55;93958.47;4910343;29;20040;-87
2023/01/01 06:29:02;;;;;;;19.05;16.40;;;;;;;13.57;51.19;93959.50;4887221;28;20054;-87
2023/01/01 06:31:28;;;;;;;18.67;15.27;;;;;;;13.57;50.82;93965.69;4941251;28;20039;-87
2023/01/01 06:33:53;;;;;;;18.10;15.02;;;;;;;13.58;50.66;93967.19;4935217;29;20508;-88
2023/01/01 06:36:21;;;;;;;18.33;16.20;;;;;;;13.59;50.79;93960.56;4939726;28;20058;-87
2023/01/01 06:38:48;;;;;;;18.55;15.30;;;;;;;13.56;50.67;93966.91;4934166;29;20031;-88
2023/01/01 06:41:19;;;;;;;21.05;14.73;;;;;;;13.54;51.06;93957.72;4956350;28;20055;-87
2023/01/01 06:43:44;;;;;;;18.30;15.88;;;;;;;13.56;50.69;93961.47;4951047;28;20043;-87
2023/01/01 06:46:17;;;;;;;19.92;15.63;;;;;;;13.55;50.65;93959.97;4918513;28;20058;-86
2023/01/01 06:48:42;;;;;;;17.70;14.63;;;;;;;13.60;50.82;93961.31;4951017;28;20591;-87
2023/01/01 06:51:10;;;;;;;18.50;15.30;;;;;;;13.59;50.92;93962.53;4914151;28;20055;-87
2023/01/01 06:53:36;;;;;;;20.10;15.63;;;;;;;13.59;50.97;93966.00;4930359;29;20043;-88
2023/01/01 06:56:01;;;;;;;17.27;14.18;;;;;;;13.58;50.86;93967.19;4938774;28;20129;-87
2023/01/01 06:58:26;;;;;;;19.90;15.95;;;;;;;13.57;51.02;93957.53;4953915;28;20031;-89
2023/01/01 07:00:52;;;;;;;18.38;15.70;;;;;;;13.55;50.84;93961.94;4932856;28;20031;-87
2023/01/01 07:03:17;;;;;;;19.98;16.35;;;;;;;13.57;51.06;93960.25;4918071;28;20516;-89
2023/01/01 07:05:43;;;;;;;18.75;14.93;;;;;;;13.57;50.67;93962.97;4954520;28;20515;-87
2023/01/01 07:08:08;;;;;;;18.10;14.65;;;;;;;13.58;50.94;93961.75;4953468;28;20121;-87
2023/01/01 07:10:33;;;;;;;19.55;15.35;;;;;;;13.57;50.88;93962.22;4970026;28;20027;-87
2023/01/01 07:12:59;;;;;;;19.27;14.77;;;;;;;13.55;50.86;93956.50;4953163;28;20054;-89
2023/01/01 07:15:25;;;;;;;19.95;15.48;;;;;;;13.53;51.16;93964.38;4968940;28;20047;-88
2023/01/01 07:17:52;;;;;;;19.45;15.07;;;;;;;13.53;50.94;93961.66;4937593;28;20045;-88
2023/01/01 07:20:17;;;;;;;19.42;15.60;;;;;;;13.52;50.47;93966.34;4953083;28;20058;-87
2023/01/01 07:22:42;;;;;;;19.98;15.50;;;;;;;13.51;50.35;93967.56;4953323;28;20043;-88
2023/01/01 07:25:09;;;;;;;20.95;16.08;;;;;;;13.50;50.91;93970.72;4952214;28;20041;-88
2023/01/01 07:27:35;;;;;;;18.27;16.23;;;;;;;13.50;50.92;93968.75;4934397;29;20046;-86
2023/01/01 07:30:00;;;;;;;19.27;15.18;;;;;;;13.54;50.32;93968.59;4934839;28;20039;-89
2023/01/01 07:32:25;;;;;;;20.27;15.43;;;;;;;13.54;50.53;93968.59;4968985;28;20105;-89
2023/01/01 07:34:51;;;;;;;18.67;15.52;;;;;;;13.58;50.25;93971.88;4969338;28;20421;-87
2023/01/01 07:37:16;;;;;;;19.92;15.75;;;;;;;13.58;50.72;93972.63;4948961;28;20039;-87
2023/01/01 07:39:42;;;;;;;16.38;14.63;;;;;;;13.57;50.66;93982.00;4950157;28;20042;-88
2023/01/01 07:42:07;;;;;;;18.80;15.20;;;;;;;13.58;50.66;93980.03;4943399;28;20038;-88
2023/01/01 07:44:32;;;;;;;19.02;15.02;;;;;;;13.59;50.74;93993.16;4936926;28;20039;-87
2023/01/01 07:47:03;;;;;;;16.33;14.18;;;;;;;13.61;50.50;93990.72;4969506;28;20042;-88
2023/01/01 07:49:29;;;;;;;18.13;15.43;;;;;;;13.63;50.52;93991.00;4936673;28;20065;-88
2023/01/01 07:51:54;;;;;;;18.75;14.70;;;;;;;13.61;50.35;94000.84;4941640;28;20039;-89
2023/01/01 07:54:19;;;;;;;16.80;14.70;;;;;;;13.64;50.32;94005.34;4952451;28;20034;-87
2023/01/01 07:56:45;;;;;;;19.85;15.40;;;;;;;13.63;50.52;93993.72;4952970;28;20496;-88
2023/01/01 07:59:10;;;;;;;20.23;14.52;;;;;;;13.65;50.46;93996.69;4952338;28;20053;-88
2023/01/01 08:01:36;;;;;;;17.48;14.45;;;;;;;13.62;50.62;94002.34;4952272;28;20065;-88
2023/01/01 08:04:02;;;;;;;17.75;15.23;;;;;;;13.59;50.36;94006.72;4952863;28;20054;-87
2023/01/01 08:06:27;;;;;;;18.52;14.90;;;;;;;13.61;49.96;94003.56;4951503;28;20046;-88
2023/01/01 08:08:52;;;;;;;16.05;13.90;;;;;;;13.61;49.98;94004.31;4952960;28;20038;-87
2023/01/01 08:11:18;;;;;;;17.63;14.00;;;;;;;13.61;50.57;94009.72;4952225;28;20045;-87
2023/01/01 08:13:43;;;;;;;18.05;14.55;;;;;;;13.64;50.25;94005.34;4952218;28;20038;-86
2023/01/01 08:16:09;;;;;;;18.25;15.07;;;;;;;13.61;50.63;94019.84;4952357;28;20122;-87
2023/01/01 08:18:34;;;;;;;18.40;14.55;;;;;;;13.59;50.63;94006.72;4952549;28;20435;-87
2023/01/01 08:21:00;;;;;;;19.30;14.50;;;;;;;13.61;50.46;94008.97;4936302;28;20436;-87
2023/01/01 08:23:25;;;;;;;20.15;14.65;;;;;;;13.61;50.61;94009.72;4952226;28;20408;-88
2023/01/01 08:25:50;;;;;;;18.42;14.68;;;;;;;13.62;50.69;94007.78;4952128;28;20026;-88
2023/01/01 08:28:16;;;;;;;19.20;14.80;;;;;;;13.59;50.35;94005.97;4951145;28;20050;-87
2023/01/01 08:30:41;;;;;;;17.60;14.13;;;;;;;13.60;50.57;93999.34;4952577;28;20456;-88
2023/01/01 08:33:07;;;;;;;18.55;15.18;;;;;;;13.61;50.44;94007.03;4968410;28;20043;-88
2023/01/01 08:35:33;;;;;;;17.67;13.70;;;;;;;13.63;50.72;94006.56;4952103;28;20515;-87
2023/01/01 08:37:59;;;;;;;16.67;13.88;;;;;;;13.63;50.73;94010.03;4968469;28;20050;-87
2023/01/01 08:40:24;;;;;;;16.45;13.75;;;;;;;13.62;50.45;94008.53;4935858;28;20041;-88
2023/01/01 08:42:52;;;;;;;16.90;13.93;;;;;;;13.64;50.60;94016.22;4968058;28;20039;-88
2023/01/01 08:45:18;;;;;;;16.42;14.10;;;;;;;13.64;50.47;94013.50;4951853;28;20045;-88
2023/01/01 08:47:43;;;;;;;19.52;14.55;;;;;;;13.62;50.23;94013.19;4968273;28;20504;-88
2023/01/01 08:50:09;;;;;;;16.92;13.80;;;;;;;13.64;50.17;94011.50;4948373;28;20051;-88
2023/01/01 08:52:34;;;;;;;18.75;14.55;;;;;;;13.62;50.60;94013.97;4942956;28;20444;-87
2023/01/01 08:55:00;;;;;;;16.45;14.30;;;;;;;13.64;50.48;94008.06;4968405;28;20049;-87
2023/01/01 08:57:25;;;;;;;18.17;13.90;;;;;;;13.63;50.35;94012.00;4951778;28;20050;-87
2023/01/01 08:59:51;;;;;;;18.55;14.18;;;;;;;13.68;50.26;94008.59;4936954;28;20422;-89
2023/01/01 09:02:16;;;;;;;17.25;14.10;;;;;;;13.69;50.39;94016.28;4968849;28;20039;-88
2023/01/01 09:04:42;;;;;;;17.77;14.73;;;;;;;13.73;50.28;94018.84;4956000;28;20046;-88
2023/01/01 09:07:07;;;;;;;16.15;14.05;;;;;;;13.73;50.34;94007.97;4955267;28;20057;-88
2023/01/01 09:09:33;;;;;;;15.10;12.70;;;;;;;13.80;50.16;94017.72;4952987;28;20039;-87
2023/01/01 09:12:02;;;;;;;18.40;14.77;;;;;;;13.81;50.03;94028.13;4956923;28;20089;-87
2023/01/01 09:14:28;;;;;;;18.15;14.23;;;;;;;13.80;50.34;94036.75;4956014;28;20043;-88
2023/01/01 09:16:53;;;;;;;17.85;14.00;;;;;;;13.79;50.52;94038.72;4955136;28;20039;-87
2023/01/01 09:19:18;;;;;;;17.33;13.55;;;;;;;13.81;50.06;94041.72;4955548;28;20035;-88
2023/01/01 09:21:44;;;;;;;16.60;14.35;;;;;;;13.79;50.29;94060.47;4939494;28;20050;-87
2023/01/01 09:24:09;;;;;;;17.48;14.48;;;;;;;13.83;50.41;94052.13;4955641;28;20043;-87
2023/01/01 09:26:35;;;;;;;16.30;13.48;;;;;;;13.82;50.19;94056.06;4938500;28;20057;-87
2023/01/01 09:29:00;;;;;;;16.42;14.00;;;;;;;13.84;50.05;94059.81;4955669;28;20867;-88
2023/01/01 09:31:26;;;;;;;14.45;12.95;;;;;;;13.85;49.99;94069.47;4971198;28;20031;-87
2023/01/01 09:33:51;;;;;;;18.27;14.63;;;;;;;13.85;50.05;94066.00;4972294;28;20038;-88
2023/01/01 09:36:19;;;;;;;15.63;13.63;;;;;;;13.83;49.97;94058.31;4954321;28;20038;-88
2023/01/01 09:38:51;;;;;;;17.10;13.23;;;;;;;13.87;50.22;94058.13;4987327;28;20049;-88
2023/01/01 09:41:19;;;;;;;16.60;13.73;;;;;;;13.85;50.17;94050.47;4971143;28;20035;-87
2023/01/01 09:44:15;;;;;;;15.57;12.88;;;;;;;13.89;50.18;94058.41;4987322;28;20042;-88
2023/01/01 09:46:40;;;;;;;16.30;12.75;;;;;;;13.87;50.68;94064.31;4970736;28;20050;-87
2023/01/01 09:49:11;;;;;;;15.73;12.73;;;;;;;13.82;50.26;94053.34;4938796;28;20055;-87
2023/01/01 09:51:37;;;;;;;15.02;13.43;;;;;;;13.81;50.38;94060.75;4951406;28;20082;-87
2023/01/01 09:54:18;;;;;;;15.18;13.25;;;;;;;13.83;50.34;94055.59;4934987;28;20047;-88
2023/01/01 09:56:44;;;;;;;16.20;13.38;;;;;;;13.83;50.06;94049.41;4959761;28;20762;-87
2023/01/01 09:59:09;;;;;;;16.48;12.88;;;;;;;13.81;50.20;94051.84;4938932;28;20035;-87
2023/01/01 10:01:59;;;;;;;16.77;13.55;;;;;;;13.81;50.69;94047.16;4936451;28;20101;-89
2023/01/01 10:04:40;;;;;;;15.98;12.73;;;;;;;13.77;50.52;94043.88;4935153;28;20051;-88
2023/01/01 10:07:27;;;;;;;16.33;13.15;;;;;;;13.77;50.36;94053.97;4952264;28;20055;-88
2023/01/01 10:10:02;;;;;;;17.40;12.98;;;;;;;13.79;50.34;94044.16;4987906;28;20039;-87
2023/01/01 10:12:43;;;;;;;17.33;13.70;;;;;;;13.78;50.66;94041.91;4971126;28;20539;-88
2023/01/01 10:15:13;;;;;;;15.80;12.65;;;;;;;13.78;50.04;94058.22;4970920;28;20137;-87
2023/01/01 10:17:45;;;;;;;15.40;12.77;;;;;;;13.77;50.39;94048.56;4954221;28;20051;-88
2023/01/01 10:20:21;;;;;;;14.15;12.48;;;;;;;13.78;50.12;94050.06;4953812;28;20046;-87
2023/01/01 10:22:50;;;;;;;16.13;12.98;;;;;;;13.80;50.61;94045.66;4971229;28;20039;-87
2023/01/01 10:25:19;;;;;;;16.13;12.73;;;;;;;13.81;50.35;94051.84;4938725;28;20081;-88
2023/01/01 10:27:48;;;;;;;18.67;13.27;;;;;;;13.81;50.45;94040.97;4969568;28;20135;-88
2023/01/01 10:30:15;;;;;;;17.50;12.80;;;;;;;13.80;50.69;94061.97;4954201;28;20118;-88
2023/01/01 10:32:43;;;;;;;15.10;11.98;;;;;;;13.80;50.48;94051.09;4970849;28;20130;-88
2023/01/01 10:35:12;;;;;;;14.43;12.15;;;;;;;13.83;50.77;94052.88;4954506;28;20113;-88
2023/01/01 10:37:38;;;;;;;15.57;12.15;;;;;;;13.85;49.96;94050.47;4938141;28;20098;-88
2023/01/01 10:40:14;;;;;;;16.15;12.95;;;;;;;13.87;50.44;94049.97;4953732;28;20038;-88
2023/01/01 10:42:39;;;;;;;15.10;13.20;;;;;;;13.85;50.40;94055.88;4954851;28;20492;-89
2023/01/01 10:45:05;;;;;;;16.58;13.20;;;;;;;13.87;50.25;94060.84;4970508;28;20043;-88
2023/01/01 10:47:30;;;;;;;16.15;13.00;;;;;;;13.84;50.29;94054.38;4953686;28;20476;-86
2023/01/01 10:50:00;;;;;;;14.18;12.45;;;;;;;13.87;50.30;94055.41;4953665;28;20061;-87
2023/01/01 10:52:30;;;;;;;15.93;12.27;;;;;;;13.85;50.32;94052.41;4953516;28;20038;-88
2023/01/01 10:54:56;;;;;;;16.45;13.82;;;;;;;13.87;50.59;94048.00;4970405;28;20039;-87
2023/01/01 10:57:32;;;;;;;17.02;13.77;;;;;;;13.90;50.51;94055.22;4952686;28;20487;-88
2023/01/01 11:00:19;;;;;;;14.30;11.95;;;;;;;13.89;50.53;94055.69;4970317;28;20121;-87
2023/01/01 11:02:44;;;;;;;17.77;13.20;;;;;;;13.90;50.49;94057.19;4938694;28;20062;-87
2023/01/01 11:05:14;;;;;;;16.63;13.23;;;;;;;13.89;50.43;94058.41;4953428;28;20031;-87
2023/01/01 11:07:40;;;;;;;16.00;12.45;;;;;;;13.89;50.41;94051.00;4966655;28;20085;-88
2023/01/01 11:10:06;;;;;;;16.38;13.52;;;;;;;13.90;50.56;94055.22;4902750;28;20135;-87
2023/01/01 11:12:36;;;;;;;14.65;12.73;;;;;;;13.90;50.10;94051.75;4902476;28;20043;-87
2023/01/01 11:15:02;;;;;;;16.23;13.40;;;;;;;13.90;50.22;94040.88;4924706;28;20047;-87
2023/01/01 11:17:30;;;;;;;13.52;11.98;;;;;;;13.90;50.10;94047.06;4933994;28;20051;-90
2023/01/01 11:19:56;;;;;;;15.10;12.00;;;;;;;13.92;50.65;94041.91;4917931;29;20043;-90
2023/01/01 11:22:51;;;;;;;17.48;12.90;;;;;;;13.93;50.09;94053.53;4949907;28;20039;-90